[Jeden Montag | 1730z - 2030z | EDDN] Nürnberg Montag

Zu Eventkalender hinzugefügt: 543 dates

RG München - Event
NurnbergMonday_sommer.jpg


Feiertag und bestes Wetter, was gibt es da Schöneres als die Maschinen aus dem Hangar zu holen und die Ruhe und grenzenlose Freiheit in der Luft zu genießen. Damit ihr dabei auch mit bestem ATC Service versorgt seid öffnen wie ab 1730z wieder unseren Albrecht-Dürer-Flughafen in Nürnberg für euch. Für mindestens drei Stunden schwingen sich unsere Lotsen in den Tower und vor die Radarschirme, um euch sicher durch den Luftraum und über das Rollfeld zu führen. Also kommt vorbei egal ob VFR oder IFR, Cargo- oder Passagiermaschine, jeder ist willkommen. Als Verbindungen bieten sich auch heute wieder Düsseldorf, Kopenhagen und Budapest an, welche ebenfalls geöffnet sein werden.

Wir freuen uns darauf euch auf Frequenz begrüßen zu können.

TAF: EDDN 180500Z 1806/1906 04004KT CAVOK

EDDN - EKCH (1800z - 2000z)
ERETO DCT LONLI M726 LASTO DCT EMBOX DCT NOBRI M726 ROSOK Q296 MONAK
EKCH - EDDN
SIMEG M736 SALLO M44 KOGIM M725 OBANI Z36 PIKIB Z715 KULOK Q244 NIBIL

EDDN - EDDL (1700z - 2000z)
SULUS L604 MASEK Z52 ARPEG Z850 ADEMI T854 DOMUX
EDDL - EDDN
KUMIK L603 TESGA Z719 ETOLU Z723 KOMIB T193 ERTES

LHBP-EDDN (1700z - 2000z)
GILEP DCT ZOLKU DCT ARSIN DCT SUBEN T161 AKINI
EDDN-LHBP
RODIS L604 LAMSI DCT MAREG DCT ANEXA
 
RG München - Event
NurnbergMonday_sommer.jpg


Und schon wieder steht ein Nürnberg Montag an. Von 1730z bis 2030z werden euch unsere Lotsen auch heute wieder mit bestem ATC Service versorgen. Lasst die Woche mit einem entspannten Abend starten und nutzt uns vielleicht wieder als Drehkreuz, denn auch Düsseldorf, Copenhagen und Budapest haben heute wieder geöffnet. Vielleicht wollt ihr uns ja aber auch von Hamburg aus besuchen, wo heute ein Approach CPT stattfindet.

TAF: EDDN 250500Z 2506/2606 32005KT 9999 FEW012 BKN025 PROB30 TEMPO 2506/2508 BKN012 PROB30 TEMPO 2511/2516 SHRA BKN030TCU TEMPO 2513/2518 VRB03KT BECMG 2518/2520 07004KT

EDDN - EDDH (1800z - 2000z)
ERETO LONLI M726 LASTO ABGUS DIRBO T902 RARUP
EDDH - EDDN
AMLUH M852 POVEL Z94 BAMKI Q243 NIBIL

EDDN - EKCH (1800z - 2000z)
ERETO DCT LONLI M726 LASTO DCT EMBOX DCT NOBRI M726 ROSOK Q296 MONAK
EKCH - EDDN
SIMEG M736 SALLO M44 KOGIM M725 OBANI Z36 PIKIB Z715 KULOK Q244 NIBIL

EDDN - EDDL (1700z - 2000z)
SULUS L604 MASEK Z52 ARPEG Z850 ADEMI T854 DOMUX
EDDL - EDDN
KUMIK L603 TESGA Z719 ETOLU Z723 KOMIB T193 ERTES

LHBP-EDDN (1700z - 2000z)
GILEP DCT ZOLKU DCT ARSIN DCT SUBEN T161 AKINI
EDDN-LHBP
RODIS L604 LAMSI DCT MAREG DCT ANEXA
 
Zuletzt bearbeitet:
RG München - Event
NurnbergMonday_sommer.jpg


"It's just another manic Monday..." - "Es ist wieder nur ein verrückter Montag...". Damit euer Montag heute nicht so verrückt endet, wie er vielleicht angefangen hat, bringen unsere Lotsen heute Ordnung in eure Leben. Naja zugegeben, vielleicht nicht in euer Leben, aber zumindest in den Luftraum und die Rollwege des Nürnberger Albrecht Dürer Flughafens, denn jeder Montag ist immer auch ein Nürnberg Montag. Also freut euch darauf ab 1730z wieder mit unserem besten ATC Service versorgt zu werden und kommt uns doch in Nürnberg besuchen.

Wir freuen uns auf euch.

TAF: EDDN 020500Z 0206/0306 VRB03KT CAVOK BECMG 0206/0208 07006KT PROB40 TEMPO 0212/0217 SHRA BKN040CB BECMG 0217/0219 VRB03KT

EDDN - EDDL (1700z - 2000z)
SULUS L604 MASEK Z52 ARPEG Z850 ADEMI T854 DOMUX
EDDL - EDDN
KUMIK L603 TESGA Z719 ETOLU Z723 KOMIB T193 ERTES

LHBP-EDDN (1700z - 2000z)
GILEP DCT ZOLKU DCT ARSIN DCT SUBEN T161 AKINI
EDDN-LHBP
RODIS L604 LAMSI DCT MAREG DCT ANEXA
 
RG München - Event
NurnbergMonday_sommer.jpg

Bayern strahlt heute mit schönstem Wetter! Zeit für den nächsten Nürnberg Montag.
Unsere Kollegen von Nürnberg scharren schon mit den Füßen um euch heute Abend von 19:30 - 22:30 Uhr local Zeit mit bestem ATC zu versorgen.
Jetzt seid ihr an der Reihe. Sorgt für ordentlich Traffic und besetzt jede Parkposition die der Albrecht Dürer Flughafen zu bieten hat! ;)
Jeder Verkehr ist herzlichst willkommen. IFR sowie VFR, Cargo oder Passagiere. Es liegt an euch den Abend gemeinsam mit uns heute zu verbringen.
Probiert doch gleich mal heute Abend die neue PMDG 737 für den MSFS aus.

Wir freuen uns auf euch!

EDDN - EDDL (1700z - 2000z)
SULUS L604 MASEK Z52 ARPEG Z850 ADEMI T854 DOMUX
EDDL - EDDN
KUMIK L603 TESGA Z719 ETOLU Z723 KOMIB T193 ERTES

LHBP-EDDN (1700z - 2000z)
GILEP DCT ZOLKU DCT ARSIN DCT SUBEN T161 AKINI
EDDN-LHBP
RODIS L604 LAMSI DCT MAREG DCT ANEXA

EDDN - EKCH (1800z - 2000z)
ERETO DCT LONLI M726 LASTO DCT EMBOX DCT NOBRI M726 ROSOK Q296 MONAK
EKCH - EDDN
SIMEG M736 SALLO M44 KOGIM M725 OBANI Z36 PIKIB Z715 KULOK Q244 NIBIL
 
RG München - Event
NurnbergMonday_sommer.jpg


Bei (noch) schönstem Wetter ist es heute abend wieder so weit. Es ist wieder Nürnberg Montag. Von 1730z bis 2030z werden unsere Lotsen euch wieder mit bestem ATC Service versorgen. Also kommt vorbei. Wir sind auf alle Schandtaten vorbereitet. Vielleicht macht ihr ja auch einen Kurzstreckenflug nach München und unterstützt Tino Preikschat bei seinem S2 CPT.

Wir freuen uns euch heute Abend auf der Frequenz zu begrüßen.

TAF: EDDN 160500Z 1606/1706 VRB03KT CAVOK BECMG 1606/1608 16006KT TEMPO 1609/1611 SHRA BKN040CB TEMPO 1613/1619 27025G40KT 3500 TSRA BKN025CB

EDDN - EDDM (1800z - 1900z)
AKANU L603 RENLO T466 ROKIL
EDDM - EDDN
INPUD Y102 UPALA

EDDN - EDDL (1700z - 2000z)
SULUS L604 MASEK Z52 ARPEG Z850 ADEMI T854 DOMUX
EDDL - EDDN
KUMIK L603 TESGA Z719 ETOLU Z723 KOMIB T193 ERTES

EDDN - EKCH (1800z - 2000z)
ERETO DCT LONLI M726 LASTO DCT EMBOX DCT NOBRI M726 ROSOK Q296 MONAK
EKCH - EDDN
SIMEG M736 SALLO M44 KOGIM M725 OBANI Z36 PIKIB Z715 KULOK Q244 NIBIL

LHBP-EDDN (1700z - 2000z)
GILEP DCT ZOLKU DCT ARSIN DCT SUBEN T161 AKINI
EDDN-LHBP
RODIS L604 LAMSI DCT MAREG DCT ANEXA
 
Oben